Wolf Creek, Kentucky
Current Conditions -  °F | °C
As of 4:58 AM on Monday 22 Dec 2014 (Local Time) from KFTK Reporting Station
Overcast Overcast  
Wind Chill: 28°   Ceiling: 4200
Heat Index: 34°   Visibility: 10mi
Dew Point: 29°   Wind: 6mph
Humidity: 82%   Direction: 80°E
Pressure: 29.96"   Gusts: NA
Location:  38.068°N, 86.3225°W
Report Text: KFTK 220958Z AUTO 08005KT 10SM BKN042 OVC100 01/M02 A2996 RMK AO2 SLP153 T00091018
Loading
Personal Weather Stations






























Interactive Weather Map New forecast layout! Learn more

10-Day Weather Forecast

Advertisements
Track Severe Weather on mobile